Time;durP1;ratioP1;P1;durP2;ratioP2;P2;SDS_P1;SDS_P2;PMS_P1;PMS_P2;Temp;Humidity;BMP_temperature;BMP_pressure;BME280_temperature;BME280_humidity;BME280_pressure;Samples;Min_cycle;Max_cycle;Signal;HPM_P1;HPM_P2
2023/03/15 00:01:15;;;;;;;0.40;0.30;;;2.60;99.90;;;;;;5073501;28;20450;-76
2023/03/15 00:03:42;;;;;;;0.50;0.50;;;2.60;99.90;;;;;;5073550;28;20430;-76
2023/03/15 00:06:10;;;;;;;0.30;0.30;;;2.70;99.90;;;;;;5073072;28;20485;-76
2023/03/15 00:08:37;;;;;;;0.40;0.30;;;2.70;99.90;;;;;;5073347;28;20464;-76
2023/03/15 00:11:04;;;;;;;0.30;0.20;;;2.60;99.90;;;;;;5073105;28;20979;-76
2023/03/15 00:13:31;;;;;;;0.30;0.30;;;2.70;99.90;;;;;;5072306;28;20438;-76
2023/03/15 00:16:01;;;;;;;0.70;0.67;;;2.70;99.90;;;;;;5073341;28;20452;-76
2023/03/15 00:18:29;;;;;;;0.30;0.20;;;2.70;99.90;;;;;;5072941;28;20478;-76
2023/03/15 00:20:57;;;;;;;0.80;0.47;;;2.70;99.90;;;;;;5073024;28;20848;-76
2023/03/15 00:23:23;;;;;;;0.90;0.40;;;2.70;99.90;;;;;;5073258;28;20456;-76
2023/03/15 00:25:51;;;;;;;0.30;0.30;;;2.70;99.90;;;;;;5073226;28;20485;-76
2023/03/15 00:28:19;;;;;;;0.30;0.30;;;2.70;99.90;;;;;;5072907;28;20465;-76
2023/03/15 00:30:46;;;;;;;0.40;0.40;;;2.70;99.90;;;;;;5073252;28;20784;-76
2023/03/15 00:33:13;;;;;;;0.60;0.30;;;2.60;99.90;;;;;;5073247;28;20420;-76
2023/03/15 00:35:42;;;;;;;0.30;0.30;;;2.60;99.90;;;;;;5072868;28;21002;-76
2023/03/15 00:38:10;;;;;;;2.10;0.60;;;2.60;99.90;;;;;;5073079;28;20476;-76
2023/03/15 00:40:37;;;;;;;0.30;0.30;;;2.60;99.90;;;;;;5073112;28;20449;-76
2023/03/15 00:43:04;;;;;;;0.30;0.30;;;2.60;99.90;;;;;;5072857;28;20434;-76
2023/03/15 00:45:31;;;;;;;0.40;0.30;;;2.60;99.90;;;;;;5072517;28;20497;-76
2023/03/15 00:47:58;;;;;;;0.30;0.30;;;2.60;99.90;;;;;;5073198;28;20447;-75
2023/03/15 00:50:24;;;;;;;0.30;0.20;;;2.60;99.90;;;;;;5073027;28;20445;-76
2023/03/15 00:52:52;;;;;;;0.33;0.30;;;2.50;99.90;;;;;;5073047;28;20425;-76
2023/03/15 00:55:20;;;;;;;0.30;0.30;;;2.50;99.90;;;;;;5072686;28;20920;-76
2023/03/15 00:57:47;;;;;;;0.40;0.30;;;2.50;99.90;;;;;;5072882;28;20486;-76
2023/03/15 01:00:18;;;;;;;0.70;0.70;;;2.50;99.90;;;;;;5072915;28;20423;-76
2023/03/15 01:02:45;;;;;;;0.77;0.50;;;2.50;99.90;;;;;;5072974;28;20525;-76
2023/03/15 01:05:13;;;;;;;0.30;0.30;;;2.50;99.90;;;;;;5072798;28;20484;-76
2023/03/15 01:07:39;;;;;;;0.30;0.20;;;2.50;99.90;;;;;;5072807;28;20453;-76
2023/03/15 01:10:08;;;;;;;0.60;0.40;;;2.50;99.90;;;;;;5072809;28;20472;-76
2023/03/15 01:12:35;;;;;;;0.30;0.20;;;2.50;99.90;;;;;;5072801;28;20437;-76
2023/03/15 01:15:04;;;;;;;0.30;0.30;;;2.50;99.90;;;;;;5072800;28;20452;-76
2023/03/15 01:17:31;;;;;;;0.40;0.30;;;2.50;99.90;;;;;;5072708;28;20445;-76
2023/03/15 01:19:58;;;;;;;0.30;0.20;;;2.40;99.90;;;;;;5072769;28;20453;-76
2023/03/15 01:22:25;;;;;;;0.30;0.20;;;2.30;99.90;;;;;;5072728;28;20456;-76
2023/03/15 01:24:51;;;;;;;0.30;0.30;;;2.30;99.90;;;;;;5074798;28;20477;-76
2023/03/15 01:27:19;;;;;;;0.30;0.30;;;2.20;99.90;;;;;;5076322;28;20445;-76
2023/03/15 01:29:46;;;;;;;0.50;0.40;;;2.10;99.90;;;;;;5076212;28;20462;-76
2023/03/15 01:32:13;;;;;;;0.30;0.30;;;2.10;99.90;;;;;;5076237;28;20438;-76
2023/03/15 01:34:40;;;;;;;0.33;0.30;;;2.00;99.90;;;;;;5076141;28;20449;-76
2023/03/15 01:37:06;;;;;;;0.30;0.20;;;2.00;99.90;;;;;;5076138;28;20524;-76
2023/03/15 01:39:33;;;;;;;0.30;0.30;;;1.90;99.90;;;;;;5076027;28;20484;-76
2023/03/15 01:42:00;;;;;;;0.53;0.53;;;1.90;99.90;;;;;;5076043;28;20452;-76
2023/03/15 01:44:49;;;;;;;0.30;0.30;;;1.80;99.90;;;;;;5076012;28;20456;-76
2023/03/15 01:47:16;;;;;;;0.30;0.30;;;1.70;99.90;;;;;;5075923;28;20433;-75
2023/03/15 01:49:46;;;;;;;0.30;0.30;;;1.70;99.90;;;;;;5075831;28;20470;-76
2023/03/15 01:52:17;;;;;;;0.30;0.30;;;1.70;99.90;;;;;;5075853;28;20429;-76
2023/03/15 01:54:48;;;;;;;0.30;0.30;;;1.60;99.90;;;;;;5075834;28;20876;-76
2023/03/15 01:57:21;;;;;;;0.30;0.30;;;1.60;99.90;;;;;;5075774;28;20472;-76
2023/03/15 01:59:54;;;;;;;0.40;0.40;;;1.60;99.90;;;;;;5075747;28;20473;-76
2023/03/15 02:02:24;;;;;;;0.40;0.33;;;1.60;99.90;;;;;;5075375;28;20446;-76
2023/03/15 02:04:56;;;;;;;0.30;0.30;;;1.60;99.90;;;;;;5075593;28;20446;-76
2023/03/15 02:07:25;;;;;;;0.33;0.33;;;1.60;99.90;;;;;;5075566;28;20408;-76
2023/03/15 02:09:58;;;;;;;0.30;0.30;;;1.60;99.90;;;;;;5075486;28;20421;-76
2023/03/15 02:12:26;;;;;;;0.50;0.50;;;1.50;99.90;;;;;;5075225;28;20414;-76
2023/03/15 02:14:55;;;;;;;0.30;0.30;;;1.50;99.90;;;;;;5075438;28;20458;-76
2023/03/15 02:17:28;;;;;;;0.30;0.30;;;1.50;99.90;;;;;;5075453;28;20420;-76
2023/03/15 02:20:06;;;;;;;0.30;0.30;;;1.40;99.90;;;;;;5075330;28;20456;-76
2023/03/15 02:22:43;;;;;;;0.30;0.20;;;1.40;99.90;;;;;;5075265;28;20837;-76
2023/03/15 02:25:17;;;;;;;0.63;0.30;;;1.40;99.90;;;;;;5074887;28;20465;-76
2023/03/15 02:27:46;;;;;;;0.30;0.30;;;1.40;99.90;;;;;;5074834;28;20419;-76
2023/03/15 02:30:13;;;;;;;0.30;0.30;;;1.40;99.90;;;;;;5075140;28;20441;-76
2023/03/15 02:32:41;;;;;;;0.30;0.30;;;1.40;99.90;;;;;;5074716;28;20453;-76
2023/03/15 02:35:08;;;;;;;0.30;0.30;;;1.40;99.90;;;;;;5074584;28;20419;-76
2023/03/15 02:37:35;;;;;;;0.30;0.30;;;1.30;99.90;;;;;;5074510;28;20445;-76
2023/03/15 02:40:02;;;;;;;0.30;0.30;;;1.30;99.90;;;;;;5074930;28;20460;-76
2023/03/15 02:42:30;;;;;;;0.30;0.30;;;1.30;99.90;;;;;;5074434;28;20434;-76
2023/03/15 02:44:58;;;;;;;0.37;0.37;;;1.30;99.90;;;;;;5074461;28;20449;-76
2023/03/15 02:47:27;;;;;;;0.30;0.20;;;1.20;99.90;;;;;;5074782;28;20798;-76
2023/03/15 02:49:54;;;;;;;0.30;0.30;;;1.20;99.90;;;;;;5074655;28;20445;-76
2023/03/15 02:52:21;;;;;;;0.30;0.30;;;1.20;99.90;;;;;;5074628;28;20427;-76
2023/03/15 02:54:48;;;;;;;0.30;0.27;;;1.20;99.90;;;;;;5074278;28;20465;-76
2023/03/15 02:57:17;;;;;;;0.30;0.30;;;1.30;99.90;;;;;;5074477;28;20442;-76
2023/03/15 02:59:44;;;;;;;0.30;0.30;;;1.20;99.90;;;;;;5074370;28;20476;-76
2023/03/15 03:02:12;;;;;;;0.30;0.30;;;1.20;99.90;;;;;;5074431;28;20427;-76
2023/03/15 03:04:40;;;;;;;0.53;0.47;;;1.20;99.90;;;;;;5074065;28;20445;-76
2023/03/15 03:07:07;;;;;;;0.30;0.30;;;1.20;99.90;;;;;;5074210;28;20485;-76
2023/03/15 03:09:34;;;;;;;0.30;0.20;;;1.10;99.90;;;;;;5074272;28;20444;-76
2023/03/15 03:12:01;;;;;;;0.30;0.30;;;1.10;99.90;;;;;;5074182;28;20456;-76
2023/03/15 03:14:27;;;;;;;0.30;0.30;;;1.10;99.90;;;;;;5073886;28;20812;-76
2023/03/15 03:16:54;;;;;;;0.30;0.30;;;1.00;99.90;;;;;;5074116;28;20453;-76
2023/03/15 03:19:24;;;;;;;1.03;0.40;;;1.10;99.90;;;;;;5073783;28;20827;-76
2023/03/15 03:21:51;;;;;;;0.30;0.30;;;1.00;99.90;;;;;;5073744;28;20967;-76
2023/03/15 03:24:18;;;;;;;0.33;0.33;;;1.10;99.90;;;;;;5073957;28;20434;-76
2023/03/15 03:26:45;;;;;;;0.30;0.30;;;1.00;99.90;;;;;;5073847;28;20552;-76
2023/03/15 03:29:15;;;;;;;0.30;0.30;;;1.00;99.90;;;;;;5074476;28;20470;-76
2023/03/15 03:31:42;;;;;;;0.37;0.33;;;1.00;99.90;;;;;;5073503;28;20824;-77
2023/03/15 03:34:13;;;;;;;1.67;0.90;;;1.00;99.90;;;;;;5073586;28;20952;-76
2023/03/15 03:36:41;;;;;;;0.40;0.40;;;1.00;99.90;;;;;;5073485;28;20844;-77
2023/03/15 03:39:08;;;;;;;0.40;0.40;;;0.90;99.90;;;;;;5073639;28;20469;-76
2023/03/15 03:41:35;;;;;;;0.53;0.53;;;0.90;99.90;;;;;;5073340;28;20434;-76
2023/03/15 03:44:02;;;;;;;0.90;0.53;;;0.90;99.90;;;;;;5074183;28;20442;-76
2023/03/15 03:46:29;;;;;;;0.30;0.30;;;0.90;99.90;;;;;;5072914;28;20463;-76
2023/03/15 03:48:56;;;;;;;0.30;0.30;;;0.90;99.90;;;;;;5073585;28;20425;-76
2023/03/15 03:51:23;;;;;;;8.30;0.60;;;0.90;99.90;;;;;;5073657;28;20810;-76
2023/03/15 03:53:51;;;;;;;0.30;0.30;;;0.90;99.90;;;;;;5073333;28;20460;-76
2023/03/15 03:56:18;;;;;;;0.30;0.30;;;0.90;99.90;;;;;;5073529;28;20438;-76
2023/03/15 03:58:44;;;;;;;0.30;0.30;;;0.90;99.90;;;;;;5073114;28;21008;-76
2023/03/15 04:01:11;;;;;;;0.30;0.30;;;0.90;99.90;;;;;;5073433;28;20424;-76
2023/03/15 04:03:38;;;;;;;0.30;0.30;;;0.80;99.90;;;;;;5073419;28;20469;-76
2023/03/15 04:06:05;;;;;;;0.40;0.37;;;0.80;99.90;;;;;;5073006;28;20458;-76
2023/03/15 04:08:32;;;;;;;1.53;0.60;;;0.80;99.90;;;;;;5073298;28;20515;-76
2023/03/15 04:11:02;;;;;;;0.30;0.30;;;0.80;99.90;;;;;;5073106;28;20425;-76
2023/03/15 04:13:30;;;;;;;0.40;0.40;;;0.80;99.90;;;;;;5073262;28;20419;-76
2023/03/15 04:15:57;;;;;;;0.30;0.30;;;0.80;99.90;;;;;;5073285;28;20780;-76
2023/03/15 04:18:24;;;;;;;0.30;0.30;;;0.80;99.90;;;;;;5073251;28;20470;-76
2023/03/15 04:20:53;;;;;;;0.30;0.30;;;0.80;99.90;;;;;;5073253;28;20449;-76
2023/03/15 04:23:21;;;;;;;0.30;0.30;;;0.80;99.90;;;;;;5073276;28;20446;-76
2023/03/15 04:25:48;;;;;;;0.30;0.30;;;0.80;99.90;;;;;;5072802;28;21034;-76
2023/03/15 04:28:17;;;;;;;0.40;0.30;;;0.80;99.90;;;;;;5072912;28;20454;-76
2023/03/15 04:30:43;;;;;;;0.30;0.30;;;0.80;99.90;;;;;;5073223;28;20472;-76
2023/03/15 04:33:11;;;;;;;0.50;0.50;;;0.90;99.90;;;;;;5072866;28;20442;-76
2023/03/15 04:35:38;;;;;;;0.30;0.30;;;0.90;99.90;;;;;;5073189;28;20445;-76
2023/03/15 04:38:06;;;;;;;0.30;0.20;;;0.90;99.90;;;;;;5073096;28;20519;-76
2023/03/15 04:40:34;;;;;;;0.97;0.50;;;0.80;99.90;;;;;;5073141;28;20418;-76
2023/03/15 04:43:03;;;;;;;0.40;0.40;;;0.80;99.90;;;;;;5073087;28;20476;-76
2023/03/15 04:45:31;;;;;;;0.30;0.30;;;0.80;99.90;;;;;;5072723;28;20551;-76
2023/03/15 04:47:59;;;;;;;0.30;0.27;;;0.80;99.90;;;;;;5072921;28;20473;-76
2023/03/15 04:50:26;;;;;;;0.47;0.40;;;0.80;99.90;;;;;;5072992;28;20424;-76
2023/03/15 04:52:53;;;;;;;0.60;0.60;;;0.80;99.90;;;;;;5072942;28;20456;-76
2023/03/15 04:55:19;;;;;;;0.30;0.30;;;0.80;99.90;;;;;;5073089;28;20409;-76
2023/03/15 04:57:46;;;;;;;0.30;0.30;;;0.80;99.90;;;;;;5072856;28;20438;-76
2023/03/15 05:00:14;;;;;;;0.30;0.30;;;0.90;99.90;;;;;;5075703;28;20427;-76
2023/03/15 05:02:42;;;;;;;0.30;0.30;;;0.80;99.90;;;;;;5076711;28;20461;-76
2023/03/15 05:05:10;;;;;;;0.30;0.30;;;0.80;99.90;;;;;;5076441;28;20442;-76
2023/03/15 05:07:37;;;;;;;0.30;0.30;;;0.80;99.90;;;;;;5076480;28;20477;-76
2023/03/15 05:10:06;;;;;;;0.40;0.40;;;0.80;99.90;;;;;;5076361;28;20437;-76
2023/03/15 05:12:33;;;;;;;0.40;0.40;;;0.80;99.90;;;;;;5076555;28;20463;-76
2023/03/15 05:15:00;;;;;;;0.30;0.30;;;0.80;99.90;;;;;;5076184;28;20919;-76
2023/03/15 05:17:27;;;;;;;0.30;0.30;;;0.70;99.90;;;;;;5076153;28;20416;-76
2023/03/15 05:19:55;;;;;;;0.30;0.30;;;0.70;99.90;;;;;;5076172;28;20481;-76
2023/03/15 05:22:24;;;;;;;0.40;0.40;;;0.70;99.90;;;;;;5076388;28;20416;-76
2023/03/15 05:24:52;;;;;;;0.30;0.30;;;0.70;99.90;;;;;;5076315;28;20455;-76
2023/03/15 05:27:19;;;;;;;0.50;0.50;;;0.60;99.90;;;;;;5076318;28;20576;-76
2023/03/15 05:29:46;;;;;;;0.40;0.40;;;0.60;99.90;;;;;;5075823;28;21011;-76
2023/03/15 05:32:13;;;;;;;0.43;0.43;;;0.60;99.90;;;;;;5076225;28;20424;-76
2023/03/15 05:34:39;;;;;;;0.30;0.30;;;0.60;99.90;;;;;;5075966;28;20428;-76
2023/03/15 05:37:08;;;;;;;0.40;0.30;;;0.60;99.90;;;;;;5076094;28;20416;-76
2023/03/15 05:39:34;;;;;;;0.30;0.20;;;0.60;99.90;;;;;;5075721;28;20980;-76
2023/03/15 05:42:01;;;;;;;0.37;0.37;;;0.50;99.90;;;;;;5075724;28;20941;-76
2023/03/15 05:44:28;;;;;;;0.30;0.30;;;0.50;99.90;;;;;;5076220;28;20449;-76
2023/03/15 05:46:55;;;;;;;0.30;0.30;;;0.60;99.90;;;;;;5075493;28;20493;-76
2023/03/15 05:49:22;;;;;;;0.53;0.53;;;0.50;99.90;;;;;;5075845;28;20836;-76
2023/03/15 05:51:48;;;;;;;0.30;0.30;;;0.60;99.90;;;;;;5075917;28;20524;-76
2023/03/15 05:54:16;;;;;;;0.30;0.30;;;0.60;99.90;;;;;;5075661;28;20451;-76
2023/03/15 05:56:43;;;;;;;0.97;0.40;;;0.60;99.90;;;;;;5075700;28;20464;-76
2023/03/15 05:59:10;;;;;;;0.30;0.30;;;0.60;99.90;;;;;;5075359;28;20840;-76
2023/03/15 06:01:36;;;;;;;0.30;0.30;;;0.70;99.90;;;;;;5075504;28;20404;-76
2023/03/15 06:04:04;;;;;;;0.30;0.30;;;0.70;99.90;;;;;;5075606;28;20428;-76
2023/03/15 06:06:31;;;;;;;0.67;0.50;;;0.70;99.90;;;;;;5075256;28;20979;-76
2023/03/15 06:08:57;;;;;;;0.30;0.30;;;0.70;99.90;;;;;;5075553;28;20464;-76
2023/03/15 06:11:25;;;;;;;0.40;0.40;;;0.70;99.90;;;;;;5073992;28;20446;-76
2023/03/15 06:13:52;;;;;;;0.30;0.30;;;0.70;99.90;;;;;;5075808;28;20936;-76
2023/03/15 06:16:19;;;;;;;0.37;0.37;;;0.70;99.90;;;;;;5075162;28;20945;-76
2023/03/15 06:18:46;;;;;;;0.30;0.30;;;0.80;99.90;;;;;;5075351;28;20473;-76
2023/03/15 06:21:12;;;;;;;0.43;0.43;;;1.10;99.90;;;;;;5075361;28;20453;-76
2023/03/15 06:23:39;;;;;;;0.30;0.30;;;1.70;99.90;;;;;;5075306;28;20442;-76
2023/03/15 06:26:06;;;;;;;0.30;0.30;;;2.60;99.90;;;;;;5074896;28;20958;-76
2023/03/15 06:28:34;;;;;;;0.47;0.47;;;3.40;99.90;;;;;;5075133;28;20476;-76
2023/03/15 06:31:06;;;;;;;0.60;0.30;;;4.20;99.90;;;;;;5075167;28;20433;-76
2023/03/15 06:33:33;;;;;;;0.30;0.30;;;4.90;99.90;;;;;;5075155;28;20429;-77
2023/03/15 06:36:00;;;;;;;0.33;0.30;;;5.10;99.90;;;;;;5075097;28;20456;-76
2023/03/15 06:38:26;;;;;;;3.93;0.50;;;4.80;99.90;;;;;;5074966;28;20453;-76
2023/03/15 06:40:54;;;;;;;0.40;0.33;;;4.30;99.90;;;;;;5074930;28;20452;-77
2023/03/15 06:43:21;;;;;;;0.53;0.50;;;3.80;99.90;;;;;;5074999;28;20545;-76
2023/03/15 06:45:49;;;;;;;0.70;0.40;;;3.40;99.90;;;;;;5074594;28;20477;-76
2023/03/15 06:48:16;;;;;;;2.10;0.50;;;3.00;99.90;;;;;;5074407;28;20492;-76
2023/03/15 06:50:43;;;;;;;0.50;0.40;;;2.80;99.90;;;;;;5074836;28;20445;-76
2023/03/15 06:53:10;;;;;;;0.47;0.43;;;2.60;99.90;;;;;;5074715;28;20455;-76
2023/03/15 06:55:36;;;;;;;0.40;0.30;;;2.40;99.90;;;;;;5074346;28;20960;-76
2023/03/15 06:58:03;;;;;;;0.30;0.20;;;2.40;99.90;;;;;;5074589;28;20469;-76
2023/03/15 07:00:30;;;;;;;0.30;0.30;;;2.30;99.90;;;;;;5074560;28;20444;-76
2023/03/15 07:02:58;;;;;;;0.40;0.30;;;2.20;99.90;;;;;;5074521;28;20442;-76
2023/03/15 07:05:25;;;;;;;0.30;0.30;;;2.20;99.90;;;;;;5074193;28;20977;-76
2023/03/15 07:07:52;;;;;;;1.57;0.93;;;2.10;99.90;;;;;;5074041;28;20460;-76
2023/03/15 07:10:19;;;;;;;0.40;0.30;;;2.20;99.90;;;;;;5074419;28;20483;-76
2023/03/15 07:12:45;;;;;;;0.30;0.30;;;2.20;99.90;;;;;;5074379;28;20548;-76
2023/03/15 07:15:12;;;;;;;0.40;0.40;;;2.20;99.90;;;;;;5074337;28;20429;-76
2023/03/15 07:17:40;;;;;;;1.43;0.37;;;2.20;99.90;;;;;;5074224;28;20458;-76
2023/03/15 07:20:09;;;;;;;0.40;0.33;;;2.20;99.90;;;;;;5073843;28;21063;-76
2023/03/15 07:22:36;;;;;;;0.30;0.20;;;2.20;99.90;;;;;;5073610;28;20428;-76
2023/03/15 07:25:05;;;;;;;0.30;0.20;;;2.30;99.90;;;;;;5074146;28;20433;-77
2023/03/15 07:27:31;;;;;;;0.30;0.30;;;2.30;99.90;;;;;;5073939;28;20540;-76
2023/03/15 07:29:59;;;;;;;0.40;0.30;;;2.30;99.90;;;;;;5074044;28;20437;-76
2023/03/15 07:32:26;;;;;;;0.30;0.30;;;2.40;99.90;;;;;;5073999;28;20507;-76
2023/03/15 07:34:56;;;;;;;0.30;0.30;;;2.40;99.90;;;;;;5073831;28;20817;-76
2023/03/15 07:37:25;;;;;;;1.13;1.03;;;2.50;99.90;;;;;;5073638;28;20920;-76
2023/03/15 07:39:51;;;;;;;0.30;0.30;;;2.60;99.90;;;;;;5073456;28;20465;-76
2023/03/15 07:42:18;;;;;;;0.40;0.40;;;2.60;99.90;;;;;;5073824;28;20449;-76
2023/03/15 07:44:45;;;;;;;0.40;0.40;;;2.60;99.90;;;;;;5073784;28;20821;-76
2023/03/15 07:47:11;;;;;;;0.30;0.30;;;2.70;99.90;;;;;;5073191;28;20864;-76
2023/03/15 07:49:38;;;;;;;0.30;0.30;;;2.80;99.90;;;;;;5073644;28;20472;-76
2023/03/15 07:52:05;;;;;;;0.57;0.57;;;2.80;99.90;;;;;;5073391;28;20951;-77
2023/03/15 07:54:33;;;;;;;0.50;0.50;;;2.80;99.90;;;;;;5073692;28;20453;-76
2023/03/15 07:57:00;;;;;;;0.60;0.60;;;2.90;99.90;;;;;;5073366;28;20441;-77
2023/03/15 07:59:26;;;;;;;0.50;0.50;;;2.90;99.90;;;;;;5073538;28;20477;-76
2023/03/15 08:01:53;;;;;;;0.30;0.27;;;2.90;99.90;;;;;;5073581;28;20450;-76
2023/03/15 08:04:20;;;;;;;0.40;0.30;;;3.00;99.90;;;;;;5073520;28;20456;-76
2023/03/15 08:06:47;;;;;;;0.50;0.30;;;3.10;99.90;;;;;;5073430;28;20450;-76
2023/03/15 08:09:13;;;;;;;0.30;0.20;;;3.10;99.90;;;;;;5073417;28;20476;-76
2023/03/15 08:11:41;;;;;;;0.63;0.50;;;3.10;99.90;;;;;;5073436;28;20809;-76
2023/03/15 08:14:08;;;;;;;2.10;0.83;;;3.10;99.90;;;;;;5073421;28;20446;-76
2023/03/15 08:16:35;;;;;;;0.40;0.30;;;3.20;99.90;;;;;;5073365;28;20448;-76
2023/03/15 08:19:01;;;;;;;0.30;0.30;;;3.40;99.90;;;;;;5073323;28;20470;-76
2023/03/15 08:21:28;;;;;;;0.40;0.30;;;3.40;99.90;;;;;;5073039;28;20822;-76
2023/03/15 08:23:55;;;;;;;0.60;0.30;;;3.50;99.90;;;;;;5073300;28;20540;-76
2023/03/15 08:26:22;;;;;;;0.30;0.30;;;3.60;99.90;;;;;;5073088;28;20437;-76
2023/03/15 08:28:50;;;;;;;0.30;0.20;;;3.70;99.90;;;;;;5072996;28;20481;-76
2023/03/15 08:31:17;;;;;;;0.30;0.30;;;3.80;99.90;;;;;;5073515;28;20461;-76
2023/03/15 08:33:43;;;;;;;0.40;0.40;;;4.00;99.90;;;;;;5073727;28;20464;-76
2023/03/15 08:36:10;;;;;;;0.30;0.20;;;4.30;99.90;;;;;;5077388;28;20441;-76
2023/03/15 08:38:37;;;;;;;0.40;0.40;;;4.50;99.90;;;;;;5077408;28;20473;-76
2023/03/15 08:41:04;;;;;;;0.83;0.77;;;4.80;99.90;;;;;;5077317;28;20449;-76
2023/03/15 08:43:31;;;;;;;0.50;0.50;;;5.10;99.90;;;;;;5077251;28;20454;-76
2023/03/15 08:45:59;;;;;;;0.90;0.50;;;5.30;99.90;;;;;;5076924;28;20861;-77
2023/03/15 08:48:26;;;;;;;0.33;0.30;;;5.60;99.90;;;;;;5076681;28;20485;-76
2023/03/15 08:50:52;;;;;;;0.40;0.30;;;5.60;99.90;;;;;;5076809;28;20456;-75
2023/03/15 08:53:19;;;;;;;0.30;0.30;;;5.70;99.90;;;;;;5077033;28;20456;-76
2023/03/15 08:55:47;;;;;;;0.40;0.30;;;6.00;99.90;;;;;;5076651;28;20453;-76
2023/03/15 08:58:14;;;;;;;0.30;0.30;;;6.40;99.90;;;;;;5076438;28;20472;-76
2023/03/15 09:00:41;;;;;;;0.70;0.70;;;6.60;99.90;;;;;;5076699;28;20437;-76
2023/03/15 09:03:10;;;;;;;0.30;0.30;;;6.50;99.90;;;;;;5076812;28;20454;-76
2023/03/15 09:05:37;;;;;;;3.40;0.50;;;6.60;99.90;;;;;;5076860;28;20909;-76
2023/03/15 09:08:04;;;;;;;2.60;0.50;;;6.80;99.90;;;;;;5076525;28;20488;-76
2023/03/15 09:10:31;;;;;;;0.30;0.30;;;7.20;99.90;;;;;;5076403;28;20521;-76
2023/03/15 09:12:57;;;;;;;0.50;0.50;;;7.60;99.90;;;;;;5076638;28;20519;-77
2023/03/15 09:15:24;;;;;;;0.60;0.40;;;8.30;99.90;;;;;;5076581;28;20464;-77
2023/03/15 09:17:51;;;;;;;0.30;0.20;;;8.80;99.90;;;;;;5076281;28;20463;-77
2023/03/15 09:20:21;;;;;;;0.40;0.40;;;8.90;99.90;;;;;;5076564;28;20539;-77
2023/03/15 09:22:51;;;;;;;0.60;0.60;;;9.00;99.90;;;;;;5076723;28;20465;-77
2023/03/15 09:25:19;;;;;;;0.90;0.50;;;8.90;99.90;;;;;;5076501;28;20804;-77
2023/03/15 09:27:46;;;;;;;0.50;0.50;;;8.90;99.90;;;;;;5075984;28;20844;-77
2023/03/15 09:30:13;;;;;;;1.60;0.40;;;8.90;99.90;;;;;;5076412;28;20944;-77
2023/03/15 09:32:42;;;;;;;0.37;0.30;;;8.90;99.90;;;;;;5076020;28;20437;-77
2023/03/15 09:35:12;;;;;;;0.30;0.20;;;9.00;99.90;;;;;;5076088;28;20457;-77
2023/03/15 09:37:41;;;;;;;0.40;0.30;;;9.40;99.90;;;;;;5076242;28;20910;-80
2023/03/15 09:40:15;;;;;;;0.30;0.27;;;9.90;99.90;;;;;;5076858;28;20548;-80
2023/03/15 09:42:56;;;;;;;0.60;0.40;;;10.30;99.90;;;;;;5076171;28;20444;-80
2023/03/15 09:45:29;;;;;;;0.40;0.30;;;10.10;99.90;;;;;;5075657;28;20522;-80
2023/03/15 09:48:04;;;;;;;0.93;0.93;;;9.50;99.90;;;;;;5075940;28;20849;-80
2023/03/15 09:50:33;;;;;;;0.40;0.40;;;9.20;99.90;;;;;;5076297;28;20484;-80
2023/03/15 09:53:06;;;;;;;0.40;0.30;;;8.60;99.90;;;;;;5075993;28;20433;-80
2023/03/15 09:55:33;;;;;;;0.40;0.30;;;8.30;99.90;;;;;;5076035;28;20901;-80
2023/03/15 09:58:01;;;;;;;0.30;0.30;;;8.00;99.90;;;;;;5075471;28;20519;-79
2023/03/15 10:00:37;;;;;;;0.43;0.40;;;8.00;99.90;;;;;;5075795;28;20460;-78
2023/03/15 10:03:08;;;;;;;0.30;0.20;;;9.00;99.90;;;;;;5075508;28;20433;-78
2023/03/15 10:05:40;;;;;;;0.30;0.30;;;10.80;99.90;;;;;;5075471;28;20448;-77
2023/03/15 10:08:16;;;;;;;0.40;0.40;;;12.20;99.90;;;;;;5075277;28;20527;-78
2023/03/15 10:10:50;;;;;;;3.50;0.60;;;13.20;99.90;;;;;;5075695;28;20436;-78
2023/03/15 10:13:31;;;;;;;0.30;0.23;;;13.70;95.90;;;;;;5075588;28;20430;-78
2023/03/15 10:16:05;;;;;;;0.97;0.30;;;13.30;94.10;;;;;;5075220;28;20433;-77
2023/03/15 10:18:51;;;;;;;0.63;0.40;;;13.20;95.60;;;;;;5075420;28;20476;-78
2023/03/15 10:21:31;;;;;;;1.50;0.37;;;12.90;93.50;;;;;;5075502;28;20440;-78
2023/03/15 10:24:02;;;;;;;0.40;0.30;;;12.90;93.50;;;;;;5075406;28;20437;-78
2023/03/15 10:26:34;;;;;;;1.10;0.40;;;13.00;91.50;;;;;;5075295;28;20492;-78
2023/03/15 10:29:06;;;;;;;0.43;0.40;;;13.70;91.50;;;;;;5074873;28;20477;-78
2023/03/15 10:31:39;;;;;;;0.40;0.40;;;14.50;91.10;;;;;;5075172;28;20780;-78
2023/03/15 10:34:06;;;;;;;0.87;0.40;;;15.10;86.40;;;;;;5075203;28;20434;-78
2023/03/15 10:36:33;;;;;;;0.40;0.40;;;15.70;84.50;;;;;;5075216;28;20430;-78
2023/03/15 10:39:01;;;;;;;0.70;0.40;;;16.00;79.30;;;;;;5074908;28;20480;-78
2023/03/15 10:41:30;;;;;;;0.40;0.30;;;15.70;79.40;;;;;;5074967;28;20436;-78
2023/03/15 10:44:00;;;;;;;0.40;0.40;;;15.10;81.20;;;;;;5074941;28;20437;-78
2023/03/15 10:46:27;;;;;;;1.07;0.30;;;14.20;81.50;;;;;;5074706;28;20476;-78
2023/03/15 10:48:58;;;;;;;0.60;0.40;;;13.90;81.70;;;;;;5074708;28;20583;-78
2023/03/15 10:51:26;;;;;;;0.40;0.30;;;14.00;76.20;;;;;;5074944;28;20915;-80
2023/03/15 10:53:59;;;;;;;1.13;0.50;;;14.30;80.30;;;;;;5074745;28;20449;-80
2023/03/15 10:56:30;;;;;;;6.70;0.60;;;14.30;78.70;;;;;;5073861;28;20460;-80
2023/03/15 10:58:58;;;;;;;0.40;0.40;;;14.40;79.00;;;;;;5074593;28;20465;-80
2023/03/15 11:01:27;;;;;;;0.40;0.30;;;14.30;78.20;;;;;;5074369;28;20976;-80
2023/03/15 11:04:06;;;;;;;0.47;0.40;;;14.20;76.80;;;;;;5074562;28;20449;-80
2023/03/15 11:06:41;;;;;;;0.50;0.50;;;14.70;77.50;;;;;;5074594;28;20444;-80
2023/03/15 11:09:11;;;;;;;0.30;0.30;;;15.20;74.40;;;;;;5074323;28;20488;-80
2023/03/15 11:11:53;;;;;;;0.30;0.30;;;15.10;72.70;;;;;;5074508;28;20543;-80
2023/03/15 11:14:20;;;;;;;1.47;0.40;;;14.20;71.90;;;;;;5074407;28;20418;-80
2023/03/15 11:16:48;;;;;;;0.30;0.20;;;13.50;74.90;;;;;;5074187;28;20913;-80
2023/03/15 11:19:17;;;;;;;0.80;0.60;;;12.90;72.10;;;;;;5073976;28;20544;-80
2023/03/15 11:21:46;;;;;;;0.30;0.30;;;12.50;75.00;;;;;;5073412;28;20442;-80
2023/03/15 11:24:25;;;;;;;0.30;0.30;;;11.90;74.70;;;;;;5074168;28;20449;-80
2023/03/15 11:26:55;;;;;;;0.30;0.30;;;11.50;77.70;;;;;;5070640;28;20437;-80
2023/03/15 11:29:26;;;;;;;0.50;0.50;;;11.20;78.00;;;;;;5053412;28;20582;-80
2023/03/15 11:31:55;;;;;;;0.40;0.30;;;11.00;79.60;;;;;;5053419;28;20911;-80
2023/03/15 11:34:38;;;;;;;0.40;0.30;;;10.80;82.20;;;;;;5052757;28;20443;-80
2023/03/15 11:37:15;;;;;;;0.70;0.40;;;10.60;82.00;;;;;;5053948;28;20443;-80
2023/03/15 11:39:47;;;;;;;0.40;0.40;;;10.40;81.90;;;;;;5053926;28;20466;-80
2023/03/15 11:42:22;;;;;;;4.93;0.40;;;10.30;82.20;;;;;;5053626;28;20431;-80
2023/03/15 11:44:53;;;;;;;0.30;0.30;;;10.00;83.30;;;;;;5054135;28;20458;-80
2023/03/15 11:47:28;;;;;;;0.40;0.30;;;10.00;83.40;;;;;;5053371;28;20487;-80
2023/03/15 11:49:56;;;;;;;0.40;0.30;;;9.80;86.00;;;;;;5053790;28;20477;-80
2023/03/15 11:52:25;;;;;;;0.40;0.30;;;9.50;86.10;;;;;;5053746;28;20449;-81
2023/03/15 11:54:56;;;;;;;0.30;0.30;;;9.40;88.00;;;;;;5053698;28;20456;-81
2023/03/15 11:57:42;;;;;;;0.40;0.30;;;9.40;85.00;;;;;;5053672;28;20431;-79
2023/03/15 12:00:47;;;;;;;0.97;0.30;;;9.40;87.60;;;;;;5053953;28;20419;-79
2023/03/15 12:03:33;;;;;;;0.40;0.33;;;9.50;87.50;;;;;;5053263;28;20508;-79
2023/03/15 12:06:32;;;;;;;0.30;0.20;;;9.60;85.30;;;;;;5053521;28;20500;-79
2023/03/15 12:09:01;;;;;;;0.30;0.30;;;9.80;84.20;;;;;;5053119;28;20490;-79
2023/03/15 12:11:40;;;;;;;0.50;0.40;;;10.10;82.50;;;;;;5053448;28;20631;-79
2023/03/15 12:14:26;;;;;;;0.30;0.20;;;10.30;82.50;;;;;;5053677;28;20442;-80
2023/03/15 12:17:12;;;;;;;0.50;0.50;;;10.40;81.80;;;;;;5053405;28;20854;-80
2023/03/15 12:19:39;;;;;;;0.30;0.30;;;10.40;82.60;;;;;;5052863;28;21004;-80
2023/03/15 12:22:15;;;;;;;0.30;0.30;;;10.40;82.60;;;;;;5053407;28;20450;-80
2023/03/15 12:24:46;;;;;;;0.30;0.30;;;10.30;80.30;;;;;;5053426;28;20422;-80
2023/03/15 12:27:17;;;;;;;0.30;0.30;;;10.30;81.60;;;;;;5053564;28;20435;-80
2023/03/15 12:29:45;;;;;;;0.30;0.30;;;10.30;81.60;;;;;;5052952;28;20852;-80
2023/03/15 12:32:15;;;;;;;0.30;0.30;;;10.30;80.40;;;;;;5053249;28;20454;-80
2023/03/15 12:34:48;;;;;;;2.00;0.47;;;10.30;80.20;;;;;;5052977;28;20426;-79
2023/03/15 12:37:18;;;;;;;0.30;0.30;;;10.30;83.60;;;;;;5053170;28;20450;-80
2023/03/15 12:39:49;;;;;;;0.97;0.40;;;10.30;84.00;;;;;;5053164;28;20492;-80
2023/03/15 12:43:08;;;;;;;0.40;0.30;;;10.40;83.50;;;;;;5053008;28;20821;-80
2023/03/15 12:45:42;;;;;;;1.83;0.70;;;10.60;81.30;;;;;;5052733;28;20471;-80
2023/03/15 12:48:24;;;;;;;0.30;0.30;;;10.90;83.50;;;;;;5052994;28;20549;-80
2023/03/15 12:50:54;;;;;;;0.50;0.50;;;11.00;83.20;;;;;;5052760;28;20435;-81
2023/03/15 12:53:27;;;;;;;0.40;0.30;;;11.10;85.00;;;;;;5053271;28;20452;-80
2023/03/15 12:55:56;;;;;;;0.40;0.30;;;11.00;85.80;;;;;;5055411;28;20447;-80
2023/03/15 12:58:29;;;;;;;0.50;0.50;;;10.80;83.90;;;;;;5052662;28;20454;-80
2023/03/15 13:00:56;;;;;;;0.40;0.30;;;10.60;82.50;;;;;;5052762;28;20415;-80
2023/03/15 13:03:26;;;;;;;0.30;0.30;;;10.50;83.10;;;;;;5052659;28;20534;-80
2023/03/15 13:05:59;;;;;;;0.70;0.30;;;10.50;84.80;;;;;;5052901;28;20442;-80